WetterOnline ( https://www.wetteronline.de )

Wetter aktuell Koblenz

Aktuelles Wetter: Andernach (75m)

6-stündlich | Neueste Meldungen
Ortszeit Temperatur Wetter
Mi, 24.04. 2:00 5.8° C bedeckt
Di, 23.04. 20:00 9.0° C leicht bewölkt
Di, 23.04. 14:00 9.4° C fast wolkenlos
Di, 23.04. 8:00 0.8° C Nebel
Di, 23.04. 2:00 0.9° C wolkenlos
Mo, 22.04. 20:00 5.5° C leichter Regen
Mo, 22.04. 14:00 9.8° C wolkig
Mo, 22.04. 8:00 1.0° C bedeckt
Ortszeit Temperatur Wetter
Mi, 24.04. 7:30 5.3° C bedeckt
Mi, 24.04. 7:20 5.3° C bedeckt
Mi, 24.04. 7:10 5.2° C leichter Regen
Mi, 24.04. 7:00 5.3° C leichter Regen
Mi, 24.04. 6:50 5.3° C leichter Regen
Mi, 24.04. 6:40 5.3° C Sprühregen
Mi, 24.04. 6:30 5.4° C bewölkt
Mi, 24.04. 6:00 5.4° C bedeckt
Mi, 24.04. 5:30 5.5° C bewölkt
Mi, 24.04. 5:00 5.4° C bedeckt
Mi, 24.04. 4:30 5.1° C bedeckt
Ortszeit Relative Feuchte Sichtweite
Mi, 24.04. 2:00 71% 35 km
Di, 23.04. 20:00 46% 60 km
Di, 23.04. 14:00 42% 50 km
Di, 23.04. 8:00 99% 3.9 km
Di, 23.04. 2:00 97% 5.0 km
Mo, 22.04. 20:00 74% 40 km
Mo, 22.04. 14:00 38% 60 km
Mo, 22.04. 8:00 90% 28 km
Ortszeit Relative Feuchte Sichtweite
Mi, 24.04. 7:30 81% 35 km
Mi, 24.04. 7:20 81% -
Mi, 24.04. 7:10 82% -
Mi, 24.04. 7:00 80% 30 km
Mi, 24.04. 6:50 80% -
Mi, 24.04. 6:40 79% -
Mi, 24.04. 6:30 78% 45 km
Mi, 24.04. 6:00 79% 40 km
Mi, 24.04. 5:30 78% 40 km
Mi, 24.04. 5:00 80% 45 km
Mi, 24.04. 4:30 84% 30 km
Ortszeit Niederschlagsmenge Niederschlagsart
Mi, 24.04. 2:00 0.1 l/m2 in 6 Std. Regen
Di, 23.04. 20:00 0.0 l/m2 in 12 Std. -
Di, 23.04. 14:00 0.0 l/m2 in 6 Std. -
Di, 23.04. 8:00 0.7 l/m2 in 12 Std. -
Di, 23.04. 2:00 0.7 l/m2 in 6 Std. Regen
Mo, 22.04. 20:00 0.1 l/m2 in 12 Std. Regen
Mo, 22.04. 14:00 0.1 l/m2 in 6 Std. Regen
Mo, 22.04. 8:00 0.0 l/m2 in 12 Std. -
Ortszeit Niederschlagsmenge Niederschlagsart
Mi, 24.04. 7:30 <0.05 l/m2 in 30 Min Schneeregen
Mi, 24.04. 7:20 keine Meldung -
Mi, 24.04. 7:10 keine Meldung -
Mi, 24.04. 7:00 <0.05 l/m2 in 1 Std. Regen
Mi, 24.04. 6:50 keine Meldung -
Mi, 24.04. 6:40 keine Meldung -
Mi, 24.04. 6:30 0.0 l/m2 in 30 Min -
Mi, 24.04. 6:00 <0.05 l/m2 in 1 Std. Regen
Mi, 24.04. 5:30 0.0 l/m2 in 30 Min -
Mi, 24.04. 5:00 <0.05 l/m2 in 1 Std. Regen
Mi, 24.04. 4:30 <0.05 l/m2 in 30 Min Schneeregen
Ortszeit Stärke Spitze Richtung
km/h Bft. km/h Grad Sektor
Mi, 24.04. 2:00 4 1 22 160° S
Di, 23.04. 20:00 11 2 32 310° NW
Di, 23.04. 14:00 7 2 18 270° W
Di, 23.04. 8:00 4 1 18 180° S
Di, 23.04. 2:00 4 1 22 200° S
Mo, 22.04. 20:00 11 2 40 110° O
Mo, 22.04. 14:00 15 3 28 340° N
Mo, 22.04. 8:00 7 2 14 330° NW
Ortszeit Stärke Spitze Richtung
km/h Bft. km/h Grad Sektor
Mi, 24.04. 7:30 7 2 14 280° W
Mi, 24.04. 7:20 7 2 - 280° W
Mi, 24.04. 7:10 7 2 - 280° W
Mi, 24.04. 7:00 7 2 18 290° W
Mi, 24.04. 6:50 7 2 - 290° W
Mi, 24.04. 6:40 11 2 - 300° NW
Mi, 24.04. 6:30 11 2 18 300° NW
Mi, 24.04. 6:00 7 2 20 300° NW
Mi, 24.04. 5:30 9 2 20 300° NW
Mi, 24.04. 5:00 4 1 14 290° W
Mi, 24.04. 4:30 2 1 6 190° S
Ortszeit Untergrenze Bedeckung Gattung
total tief tief mittel hoch
Mi, 24.04. 2:00 1290 m 8/8 8/8 - - -
Di, 23.04. 20:00 2100 m 6/8 1/8 - - -
Di, 23.04. 14:00 7800 m 1/8 0/8 - - -
Di, 23.04. 8:00 90 m 8/8 8/8 - - -
Di, 23.04. 2:00 - 0/8 0/8 - - -
Mo, 22.04. 20:00 1260 m 7/8 7/8 - - -
Mo, 22.04. 14:00 1800 m 7/8 4/8 - - -
Mo, 22.04. 8:00 3600 m 8/8 8/8 - - -
Ortszeit Bedeckungsgrad in Achtel und Wolkenuntergrenze
Mi, 24.04. 7:30 2(1080m) 3(1350m) 8(1800m)
Mi, 24.04. 7:20 2(1080m) 3(1350m) 8(1800m)
Mi, 24.04. 7:10 8
Mi, 24.04. 7:00 2(1200m) 7(1500m) 7(1800m)
Mi, 24.04. 6:50 2(1200m) 7(1500m) 7(1800m)
Mi, 24.04. 6:40 7
Mi, 24.04. 6:30 7(1800m)
Mi, 24.04. 6:00 1(540m) 8(1800m)
Mi, 24.04. 5:30 5(630m) 7(1800m) 7(2400m)
Mi, 24.04. 5:00 5(600m) 8(1500m) 8(2400m)
Mi, 24.04. 4:30 3(720m) 8(1800m) 8(2700m)
Ortszeit Luftdruck NN (hPa) Tendenz (hPa in 3 Std.)
Mi, 24.04. 2:00 1014 - 1,8
Di, 23.04. 20:00 1016 - 0,9
Di, 23.04. 14:00 1019 - 2,1
Di, 23.04. 8:00 1022 + 0,2
Di, 23.04. 2:00 1022 - 0,4
Mo, 22.04. 20:00 1022 + 0,3
Mo, 22.04. 14:00 1023 - 1,9
Mo, 22.04. 8:00 1025 - 0,1
Ortszeit Luftdruck NN (hPa) Tendenz (hPa in 3 Std.)
Mi, 24.04. 7:30 1011 - 1,0
Mi, 24.04. 7:20 1011 keine Meldung
Mi, 24.04. 7:10 1011 keine Meldung
Mi, 24.04. 7:00 1011 - 1,3
Mi, 24.04. 6:50 1011 keine Meldung
Mi, 24.04. 6:40 1011 keine Meldung
Mi, 24.04. 6:30 1011 - 1,5
Mi, 24.04. 6:00 1012 - 1,7
Mi, 24.04. 5:30 1012 - 1,7
Mi, 24.04. 5:00 1012 - 1,8
Mi, 24.04. 4:30 1012 - 2,1
Ortszeit Schneehöhe (cm)
Mi, 24.04. 2:00 0
Di, 23.04. 20:00 0
Di, 23.04. 14:00 0
Di, 23.04. 8:00 0
Di, 23.04. 2:00 0
Mo, 22.04. 20:00 0
Mo, 22.04. 14:00 0
Mo, 22.04. 8:00 0
Ortszeit Schneehöhe (cm)
Mi, 24.04. 7:30 0
Mi, 24.04. 7:20 0
Mi, 24.04. 7:10 -
Mi, 24.04. 7:00 0
Mi, 24.04. 6:50 0
Mi, 24.04. 6:40 -
Mi, 24.04. 6:30 0
Mi, 24.04. 6:00 0
Mi, 24.04. 5:30 0
Mi, 24.04. 5:00 0
Mi, 24.04. 4:30 0
Link zu dieser Seite / Seite empfehlen

Das Wetter in ...